Time;durP1;ratioP1;P1;durP2;ratioP2;P2;SDS_P1;SDS_P2;PMS_P1;PMS_P2;Temp;Humidity;BMP_temperature;BMP_pressure;BME280_temperature;BME280_humidity;BME280_pressure;Samples;Min_cycle;Max_cycle;Signal;HPM_P1;HPM_P2
2021/05/21 02:46:23;;;;;;;3.28;3.17;;;10.70;99.90;;;;;;5886211;22;89161;-85
2021/05/21 02:48:49;;;;;;;3.75;3.63;;;10.70;99.90;;;;;;4959941;28;87262;-83
2021/05/21 02:51:15;;;;;;;4.32;4.03;;;10.80;99.90;;;;;;4968793;28;88443;-85
2021/05/21 02:53:40;;;;;;;2.58;2.47;;;10.90;99.90;;;;;;4970369;28;86596;-85
2021/05/21 02:56:06;;;;;;;2.63;2.42;;;11.00;99.90;;;;;;4970358;28;86886;-85
2021/05/21 02:58:32;;;;;;;2.90;2.70;;;11.20;99.00;;;;;;4970404;28;86836;-86
2021/05/21 03:00:57;;;;;;;2.53;2.42;;;11.30;98.20;;;;;;4970099;28;86919;-84
2021/05/21 03:03:23;;;;;;;2.90;2.80;;;11.40;96.90;;;;;;4969539;28;86968;-84
2021/05/21 03:05:49;;;;;;;3.58;3.38;;;11.50;96.00;;;;;;4969923;28;87202;-85
2021/05/21 03:08:14;;;;;;;2.80;2.70;;;11.60;95.40;;;;;;4970180;28;87276;-85
2021/05/21 03:10:40;;;;;;;3.25;3.05;;;11.70;94.80;;;;;;4971422;28;87406;-87
2021/05/21 03:13:06;;;;;;;3.28;3.17;;;11.80;93.40;;;;;;4977583;28;86591;-85
2021/05/21 03:15:32;;;;;;;2.05;1.95;;;11.90;93.50;;;;;;4970815;28;88677;-84
2021/05/21 03:17:59;;;;;;;3.13;2.83;;;12.00;93.40;;;;;;4966240;28;88769;-84
2021/05/21 03:20:28;;;;;;;2.70;2.60;;;12.00;93.70;;;;;;4968627;28;86983;-85
2021/05/21 03:22:53;;;;;;;2.75;2.65;;;12.00;94.10;;;;;;4951448;28;86756;-85
2021/05/21 03:25:19;;;;;;;3.65;3.45;;;12.00;94.20;;;;;;4965000;28;87535;-86
2021/05/21 03:27:45;;;;;;;2.97;2.88;;;12.00;93.20;;;;;;4969546;28;86981;-84
2021/05/21 03:30:11;;;;;;;4.15;3.85;;;12.00;92.80;;;;;;4973307;28;87018;-84
2021/05/21 03:32:38;;;;;;;4.10;3.90;;;12.00;92.60;;;;;;4951212;28;86320;-84
2021/05/21 03:35:05;;;;;;;4.90;4.70;;;12.00;92.50;;;;;;4967467;28;88239;-83
2021/05/21 03:37:31;;;;;;;4.60;4.30;;;12.10;91.50;;;;;;4963156;28;87222;-85
2021/05/21 03:39:57;;;;;;;3.25;3.03;;;12.10;91.30;;;;;;4965918;28;87782;-85
2021/05/21 03:42:23;;;;;;;3.50;3.40;;;12.20;89.80;;;;;;4965601;28;87274;-84
2021/05/21 03:44:48;;;;;;;3.38;3.17;;;12.30;87.20;;;;;;4965390;28;87418;-83
2021/05/21 03:47:14;;;;;;;3.55;3.35;;;12.40;88.20;;;;;;4966244;28;86934;-83
2021/05/21 03:49:40;;;;;;;3.92;3.83;;;12.40;87.20;;;;;;4967228;28;86948;-84
2021/05/21 03:52:06;;;;;;;3.28;3.15;;;12.50;87.20;;;;;;4961176;28;87080;-84
2021/05/21 03:54:31;;;;;;;3.05;2.95;;;12.50;86.80;;;;;;4962565;28;86965;-84
2021/05/21 03:56:57;;;;;;;3.28;3.17;;;12.50;85.70;;;;;;4955747;28;86884;-84
2021/05/21 03:59:23;;;;;;;5.93;3.40;;;12.60;85.60;;;;;;4968064;28;86752;-84
2021/05/21 04:01:49;;;;;;;3.17;2.97;;;12.50;84.20;;;;;;4964146;28;87690;-83
2021/05/21 04:04:15;;;;;;;3.67;3.47;;;12.60;84.00;;;;;;4939024;28;90601;-84
2021/05/21 04:06:41;;;;;;;4.80;4.60;;;12.70;81.60;;;;;;4953734;28;88266;-84
2021/05/21 04:09:07;;;;;;;2.70;2.60;;;12.80;81.10;;;;;;4966675;28;86784;-86
2021/05/21 04:11:37;;;;;;;3.45;3.25;;;12.90;78.50;;;;;;4966102;28;87030;-85
2021/05/21 04:14:05;;;;;;;3.07;2.97;;;12.90;79.20;;;;;;4968677;28;87555;-84
2021/05/21 04:16:31;;;;;;;3.50;3.35;;;13.00;78.50;;;;;;4967254;28;86928;-85
2021/05/21 04:18:57;;;;;;;4.38;4.28;;;13.10;77.90;;;;;;4968610;28;87134;-83
2021/05/21 04:21:24;;;;;;;3.65;3.35;;;13.10;77.50;;;;;;4965937;28;86270;-86
2021/05/21 04:23:50;;;;;;;5.07;4.88;;;13.10;76.80;;;;;;4971594;28;87263;-82
2021/05/21 04:26:18;;;;;;;4.55;4.38;;;13.20;76.70;;;;;;4980135;28;86809;-86
2021/05/21 04:28:50;;;;;;;4.70;4.35;;;13.20;75.50;;;;;;4967852;28;87754;-88
2021/05/21 04:31:16;;;;;;;4.55;4.35;;;13.30;75.40;;;;;;4963790;28;86892;-89
2021/05/21 04:33:43;;;;;;;6.30;6.10;;;13.30;75.60;;;;;;4964086;28;87206;-86
2021/05/21 04:36:09;;;;;;;5.13;4.82;;;13.30;75.30;;;;;;4966246;28;87387;-87
2021/05/21 04:38:35;;;;;;;4.45;4.25;;;13.40;75.70;;;;;;4946744;28;87632;-86
2021/05/21 04:41:01;;;;;;;4.32;4.13;;;13.40;73.90;;;;;;4965259;28;87092;-87
2021/05/21 04:43:27;;;;;;;4.18;4.07;;;13.40;74.10;;;;;;4967035;28;87077;-84
2021/05/21 04:45:54;;;;;;;4.90;4.70;;;13.40;74.50;;;;;;4962241;28;86227;-87
2021/05/21 04:48:21;;;;;;;4.60;4.40;;;13.50;73.20;;;;;;4965270;28;87521;-87
2021/05/21 04:50:47;;;;;;;3.80;3.63;;;13.50;74.60;;;;;;4965420;28;86936;-86
2021/05/21 04:53:14;;;;;;;4.75;4.40;;;13.50;74.10;;;;;;4966708;28;89173;-86
2021/05/21 04:55:42;;;;;;;4.13;3.92;;;13.50;74.60;;;;;;4962281;28;87986;-84
2021/05/21 04:58:09;;;;;;;5.72;5.53;;;13.40;75.30;;;;;;4957062;28;87057;-85
2021/05/21 05:00:35;;;;;;;5.75;5.55;;;13.50;75.70;;;;;;4962253;28;86981;-86
2021/05/21 05:03:09;;;;;;;4.93;4.72;;;13.50;76.10;;;;;;4947375;28;88672;-86
2021/05/21 05:05:35;;;;;;;5.35;4.85;;;13.40;78.10;;;;;;4966359;28;86886;-87
2021/05/21 05:08:01;;;;;;;4.97;4.78;;;13.30;80.10;;;;;;4966051;28;86858;-87
2021/05/21 05:10:29;;;;;;;4.93;4.63;;;13.20;80.80;;;;;;4968406;28;86163;-87
2021/05/21 05:12:56;;;;;;;3.70;3.50;;;13.10;82.10;;;;;;4976966;28;87257;-87
2021/05/21 05:15:22;;;;;;;4.53;4.32;;;12.90;82.60;;;;;;4971669;28;86977;-87
2021/05/21 05:17:50;;;;;;;4.38;4.18;;;12.90;82.20;;;;;;4960984;28;87685;-87
2021/05/21 05:20:16;;;;;;;4.07;3.70;;;12.80;82.50;;;;;;4968919;28;86990;-86
2021/05/21 05:22:43;;;;;;;3.83;3.72;;;12.90;82.10;;;;;;4969261;28;87211;-85
2021/05/21 05:25:09;;;;;;;6.55;6.25;;;12.90;81.00;;;;;;4969879;28;87297;-87
2021/05/21 05:27:35;;;;;;;4.35;4.05;;;12.90;80.40;;;;;;4970224;28;87002;-85
2021/05/21 05:30:05;;;;;;;4.40;4.03;;;13.00;79.70;;;;;;4970417;28;87301;-85
2021/05/21 05:32:31;;;;;;;4.50;4.22;;;13.10;78.00;;;;;;4969274;28;87075;-86
2021/05/21 05:34:56;;;;;;;5.00;4.80;;;13.20;77.80;;;;;;4968022;28;87764;-85
2021/05/21 05:37:25;;;;;;;5.03;4.82;;;13.30;77.40;;;;;;4968223;28;87035;-87
2021/05/21 05:39:50;;;;;;;3.85;3.75;;;13.40;77.60;;;;;;4965784;28;86612;-85
2021/05/21 05:42:16;;;;;;;3.25;3.15;;;13.40;75.10;;;;;;4949404;28;92299;-86
2021/05/21 05:44:43;;;;;;;4.40;4.20;;;13.50;72.30;;;;;;4968969;28;87159;-88
2021/05/21 05:47:09;;;;;;;3.95;3.75;;;13.60;71.00;;;;;;4966811;28;86974;-83
2021/05/21 05:49:35;;;;;;;4.15;3.88;;;13.80;72.00;;;;;;4968260;28;87061;-85
2021/05/21 05:52:00;;;;;;;4.28;4.03;;;13.80;70.70;;;;;;4964288;28;86911;-84
2021/05/21 05:54:27;;;;;;;3.50;3.30;;;13.90;70.50;;;;;;4967953;28;86941;-87
2021/05/21 05:56:53;;;;;;;4.03;3.83;;;14.00;69.50;;;;;;4965055;28;87071;-86
2021/05/21 05:59:19;;;;;;;5.20;5.00;;;14.10;69.30;;;;;;4961935;28;86409;-87
2021/05/21 06:01:45;;;;;;;4.13;4.03;;;14.10;68.20;;;;;;4955581;28;87656;-86
2021/05/21 06:04:11;;;;;;;4.43;4.22;;;14.20;67.00;;;;;;4961195;28;87037;-86
2021/05/21 06:06:36;;;;;;;5.68;5.47;;;14.30;65.30;;;;;;4964242;28;87998;-85
2021/05/21 06:09:03;;;;;;;4.60;4.40;;;14.40;63.50;;;;;;4967830;28;86850;-86
2021/05/21 06:11:28;;;;;;;7.40;7.15;;;14.50;63.80;;;;;;4945356;28;90690;-85
2021/05/21 06:13:54;;;;;;;6.13;5.93;;;14.50;63.10;;;;;;4963244;28;88113;-86
2021/05/21 06:16:20;;;;;;;7.20;6.85;;;14.60;62.60;;;;;;4963161;28;86468;-87
2021/05/21 06:18:47;;;;;;;6.95;6.65;;;14.70;63.00;;;;;;4948606;28;87095;-88
2021/05/21 06:21:13;;;;;;;3.03;2.92;;;14.70;62.30;;;;;;4967363;28;87373;-87
2021/05/21 06:23:40;;;;;;;4.53;4.22;;;14.90;62.00;;;;;;4950023;28;88875;-87
2021/05/21 06:28:47;;;;;;;3.95;3.75;;;15.20;59.50;;;;;;4965496;28;87594;-86
2021/05/21 06:31:12;;;;;;;3.90;3.70;;;15.30;58.80;;;;;;4965258;28;87964;-86
2021/05/21 06:33:39;;;;;;;3.25;3.05;;;15.40;60.10;;;;;;4966231;28;87027;-88
2021/05/21 06:36:05;;;;;;;3.38;3.28;;;15.50;59.60;;;;;;4967599;28;86945;-86
2021/05/21 06:38:31;;;;;;;4.22;3.97;;;15.60;60.80;;;;;;4966367;28;87208;-87
2021/05/21 06:40:56;;;;;;;3.95;3.85;;;15.60;59.10;;;;;;4968270;28;86905;-86
2021/05/21 06:43:22;;;;;;;5.82;5.53;;;15.70;59.00;;;;;;4966093;28;87283;-87
2021/05/21 06:45:49;;;;;;;2.85;2.75;;;15.70;58.80;;;;;;4966596;28;87214;-86
2021/05/21 06:48:14;;;;;;;6.05;5.82;;;15.70;62.70;;;;;;4965854;28;86344;-84
2021/05/21 06:50:42;;;;;;;5.43;5.20;;;15.70;67.60;;;;;;4965751;28;87169;-86
2021/05/21 06:53:08;;;;;;;6.07;5.47;;;15.80;69.90;;;;;;4976851;28;86715;-86
2021/05/21 06:55:34;;;;;;;4.90;4.60;;;15.80;71.50;;;;;;4986207;28;87793;-85
2021/05/21 06:57:59;;;;;;;4.65;4.45;;;15.80;71.60;;;;;;4980401;28;86664;-87
2021/05/21 07:00:25;;;;;;;5.40;4.57;;;15.80;74.10;;;;;;4979687;28;87153;-87
2021/05/21 07:02:51;;;;;;;5.43;5.03;;;15.70;74.20;;;;;;4972374;28;87229;-87
2021/05/21 07:05:17;;;;;;;5.63;5.22;;;15.60;73.80;;;;;;4977460;28;86742;-86
2021/05/21 07:07:43;;;;;;;4.55;4.25;;;15.40;77.70;;;;;;4981611;28;86338;-86
2021/05/21 07:10:09;;;;;;;5.10;4.80;;;15.10;81.80;;;;;;4979536;28;87505;-86
2021/05/21 07:12:35;;;;;;;5.88;5.53;;;14.70;81.30;;;;;;4971492;28;86338;-88
2021/05/21 07:15:02;;;;;;;6.13;5.88;;;14.50;83.80;;;;;;4970387;28;86976;-88
2021/05/21 07:17:28;;;;;;;4.07;3.80;;;14.40;89.50;;;;;;4969709;28;87015;-87
2021/05/21 07:19:54;;;;;;;5.47;5.15;;;14.30;90.40;;;;;;4969404;28;88594;-87
2021/05/21 07:22:19;;;;;;;4.28;3.90;;;14.20;90.80;;;;;;4968902;28;87816;-87
2021/05/21 07:24:45;;;;;;;5.03;4.43;;;14.00;89.50;;;;;;4968850;28;86928;-86
2021/05/21 07:27:11;;;;;;;5.30;4.93;;;13.90;90.20;;;;;;4969701;28;86869;-87
2021/05/21 07:29:36;;;;;;;6.97;6.47;;;13.80;90.60;;;;;;4971658;28;86716;-87
2021/05/21 07:32:02;;;;;;;6.95;6.57;;;13.80;88.40;;;;;;4970333;28;86937;-86
2021/05/21 07:34:28;;;;;;;5.13;4.68;;;13.70;89.00;;;;;;4968904;28;87478;-86
2021/05/21 07:36:54;;;;;;;6.13;5.50;;;13.70;89.10;;;;;;4968465;28;86235;-85
2021/05/21 07:39:20;;;;;;;4.65;4.22;;;13.70;90.50;;;;;;4968051;28;87086;-86
2021/05/21 07:41:46;;;;;;;4.43;4.07;;;13.70;89.10;;;;;;4968382;28;87099;-86
2021/05/21 07:44:11;;;;;;;7.00;6.40;;;13.80;87.60;;;;;;4966997;28;88472;-86
2021/05/21 07:46:37;;;;;;;4.22;4.03;;;13.90;82.30;;;;;;4966907;28;86641;-86
2021/05/21 07:49:04;;;;;;;4.85;4.45;;;14.00;78.10;;;;;;4966863;28;87241;-87
2021/05/21 07:51:32;;;;;;;4.03;3.75;;;14.20;79.90;;;;;;4967474;28;87359;-86
2021/05/21 07:53:57;;;;;;;4.22;3.92;;;14.40;77.10;;;;;;4967835;28;86669;-86
2021/05/21 07:56:23;;;;;;;3.63;3.42;;;14.50;72.20;;;;;;4967840;28;87033;-86
2021/05/21 07:58:49;;;;;;;4.72;4.43;;;14.70;72.40;;;;;;4967384;28;87242;-86
2021/05/21 08:01:14;;;;;;;4.68;4.32;;;14.90;71.10;;;;;;4968167;28;86473;-87
2021/05/21 08:03:40;;;;;;;5.22;5.03;;;15.30;65.60;;;;;;4974619;28;87081;-86
2021/05/21 08:06:06;;;;;;;4.65;2.85;;;15.60;64.00;;;;;;4975298;28;87077;-86
2021/05/21 08:08:32;;;;;;;3.40;3.10;;;15.90;60.80;;;;;;4967829;28;88019;-86
2021/05/21 08:11:01;;;;;;;4.07;3.88;;;16.10;59.80;;;;;;4977003;28;87075;-86
2021/05/21 08:13:27;;;;;;;4.05;3.95;;;16.20;58.00;;;;;;4968016;28;86595;-86
2021/05/21 08:15:53;;;;;;;3.53;3.42;;;16.40;58.60;;;;;;4968887;28;86953;-86
2021/05/21 08:18:19;;;;;;;4.35;4.15;;;16.50;56.30;;;;;;4967018;28;88165;-85
2021/05/21 08:20:45;;;;;;;5.97;5.57;;;16.50;55.20;;;;;;4949840;28;89042;-86
2021/05/21 08:23:14;;;;;;;6.15;5.70;;;16.50;56.20;;;;;;4969309;28;86714;-85
2021/05/21 08:25:43;;;;;;;8.25;7.88;;;16.50;56.00;;;;;;4962140;28;86684;-85
2021/05/21 08:28:10;;;;;;;4.88;4.57;;;16.50;55.70;;;;;;4977427;28;87390;-86
2021/05/21 08:30:36;;;;;;;7.32;6.85;;;16.40;63.70;;;;;;4978523;28;87028;-84
2021/05/21 08:33:02;;;;;;;4.78;4.50;;;16.30;70.10;;;;;;4965718;28;88477;-86
2021/05/21 08:35:30;;;;;;;5.85;5.53;;;16.10;73.10;;;;;;4967382;28;87090;-85
2021/05/21 08:37:56;;;;;;;4.95;4.55;;;15.90;73.80;;;;;;4967213;28;87757;-86
2021/05/21 08:40:25;;;;;;;5.50;5.00;;;15.80;73.30;;;;;;4966624;28;87045;-86
2021/05/21 08:43:00;;;;;;;5.13;4.82;;;15.50;75.00;;;;;;4967894;28;86960;-84
2021/05/21 08:45:29;;;;;;;5.25;4.95;;;15.40;77.10;;;;;;4970481;28;86900;-85
2021/05/21 08:47:55;;;;;;;5.80;5.50;;;15.40;77.80;;;;;;4962852;28;86912;-85
2021/05/21 08:50:21;;;;;;;5.05;4.65;;;15.50;78.70;;;;;;4967007;28;86941;-86
2021/05/21 08:52:48;;;;;;;4.75;4.45;;;15.60;79.30;;;;;;4968136;28;86873;-85
2021/05/21 08:55:14;;;;;;;4.53;3.85;;;15.60;80.40;;;;;;4970452;28;86974;-85
2021/05/21 08:57:41;;;;;;;4.13;3.72;;;15.50;79.90;;;;;;4967552;28;87970;-85
2021/05/21 09:00:07;;;;;;;5.05;4.60;;;15.50;81.30;;;;;;4966912;28;88186;-86
2021/05/21 09:02:34;;;;;;;6.65;6.25;;;15.50;82.50;;;;;;4967823;28;86955;-83
2021/05/21 09:05:01;;;;;;;6.45;6.05;;;15.50;83.30;;;;;;4968025;28;86887;-86
2021/05/21 09:07:34;;;;;;;6.57;6.18;;;15.60;84.70;;;;;;4967288;28;87699;-84
2021/05/21 09:10:08;;;;;;;6.70;5.72;;;15.70;86.50;;;;;;4965053;28;87278;-84
2021/05/21 09:12:41;;;;;;;5.55;4.60;;;15.70;87.40;;;;;;4967771;28;87124;-84
2021/05/21 09:15:20;;;;;;;3.88;3.67;;;15.90;87.50;;;;;;4967740;28;86310;-85
2021/05/21 09:18:08;;;;;;;5.10;4.70;;;16.00;88.50;;;;;;4967794;28;87537;-86
2021/05/21 09:20:38;;;;;;;4.35;4.03;;;16.00;89.10;;;;;;4967429;28;87455;-84
2021/05/21 09:23:10;;;;;;;4.60;4.40;;;16.10;89.10;;;;;;4966544;28;87605;-83
2021/05/21 09:25:35;;;;;;;4.95;4.60;;;16.10;89.60;;;;;;4967057;28;86965;-83
2021/05/21 09:28:01;;;;;;;3.75;3.55;;;16.10;89.90;;;;;;4967741;28;88557;-84
2021/05/21 09:30:27;;;;;;;5.25;4.75;;;16.10;90.00;;;;;;4966321;28;86901;-84
2021/05/21 09:33:02;;;;;;;6.03;5.43;;;16.00;90.60;;;;;;4965134;28;86991;-84
2021/05/21 09:35:28;;;;;;;6.28;5.78;;;16.10;91.20;;;;;;4965281;28;87009;-83
2021/05/21 09:37:54;;;;;;;5.80;5.35;;;16.00;91.40;;;;;;4965077;28;87866;-85
2021/05/21 09:40:21;;;;;;;6.75;6.32;;;16.00;91.70;;;;;;4968133;28;86429;-84
2021/05/21 09:42:50;;;;;;;4.65;4.38;;;15.70;91.70;;;;;;4962910;28;86965;-86
2021/05/21 09:45:19;;;;;;;5.15;4.85;;;15.70;93.20;;;;;;4970157;28;87003;-86
2021/05/21 09:47:54;;;;;;;5.82;5.47;;;15.50;93.90;;;;;;4968312;28;88077;-87
2021/05/21 09:50:36;;;;;;;4.72;4.53;;;15.50;94.00;;;;;;4968688;28;87111;-85
2021/05/21 09:53:15;;;;;;;4.60;4.20;;;15.20;94.30;;;;;;4949224;28;87146;-86
2021/05/21 09:55:44;;;;;;;5.82;5.45;;;15.30;94.60;;;;;;4970668;28;86872;-87
2021/05/21 09:58:32;;;;;;;5.35;4.97;;;15.30;94.90;;;;;;4968267;28;88267;-85
2021/05/21 10:01:08;;;;;;;6.13;5.82;;;15.40;95.50;;;;;;4968239;28;86849;-85
2021/05/21 10:03:35;;;;;;;6.97;6.45;;;15.50;95.90;;;;;;4973195;28;86965;-84
2021/05/21 10:06:02;;;;;;;6.65;6.32;;;15.60;95.60;;;;;;4968065;28;85870;-84
2021/05/21 10:08:29;;;;;;;7.32;7.03;;;15.60;96.60;;;;;;4966736;28;87519;-85
2021/05/21 10:10:55;;;;;;;6.75;6.45;;;15.60;97.00;;;;;;4958929;28;87393;-85
2021/05/21 10:13:21;;;;;;;6.72;6.43;;;15.70;97.10;;;;;;4961271;28;87670;-86
2021/05/21 10:15:48;;;;;;;9.02;8.52;;;15.80;96.90;;;;;;4960919;28;87445;-85
2021/05/21 10:18:16;;;;;;;5.05;4.75;;;15.80;96.00;;;;;;4967534;28;87231;-85
2021/05/21 10:20:46;;;;;;;4.30;4.00;;;15.80;95.20;;;;;;4968737;28;86951;-85
2021/05/21 10:23:17;;;;;;;4.22;3.97;;;15.80;95.00;;;;;;4968709;28;87454;-86
2021/05/21 10:25:45;;;;;;;4.03;3.72;;;16.00;95.20;;;;;;4969163;28;86980;-85
2021/05/21 10:28:12;;;;;;;5.10;4.70;;;16.20;94.80;;;;;;4966897;28;87596;-87
2021/05/21 10:30:38;;;;;;;4.15;3.95;;;16.20;94.90;;;;;;4967622;28;86249;-86
2021/05/21 10:33:14;;;;;;;5.78;5.28;;;16.20;94.50;;;;;;4965096;28;86741;-86
2021/05/21 10:35:40;;;;;;;4.93;4.53;;;16.10;94.40;;;;;;4964468;28;86774;-86
2021/05/21 10:38:18;;;;;;;5.40;5.10;;;16.10;93.80;;;;;;4964696;28;88530;-85
2021/05/21 10:40:44;;;;;;;5.55;5.28;;;15.80;94.30;;;;;;4963150;28;88776;-87
2021/05/21 10:43:16;;;;;;;5.03;4.82;;;15.70;94.40;;;;;;4964496;28;86658;-88
2021/05/21 10:45:55;;;;;;;4.90;4.40;;;15.80;94.00;;;;;;4970128;28;86960;-85
2021/05/21 10:48:28;;;;;;;3.53;3.33;;;15.70;93.80;;;;;;4961109;28;87101;-86
2021/05/21 10:51:09;;;;;;;5.53;5.15;;;15.60;94.40;;;;;;4964861;28;87796;-88
2021/05/21 10:53:46;;;;;;;5.28;5.07;;;15.60;94.60;;;;;;4965944;28;86964;-86
2021/05/21 10:56:14;;;;;;;5.00;4.70;;;15.60;94.50;;;;;;4971350;28;86153;-89
2021/05/21 10:58:44;;;;;;;5.63;5.22;;;15.50;95.00;;;;;;4969758;28;87412;-88
2021/05/21 11:01:18;;;;;;;3.83;3.53;;;15.50;95.00;;;;;;4969943;28;87486;-86
2021/05/21 11:03:56;;;;;;;5.63;5.22;;;15.40;95.50;;;;;;4962683;28;87235;-86
2021/05/21 11:06:27;;;;;;;4.32;4.13;;;15.30;95.70;;;;;;4967607;28;87102;-86
2021/05/21 11:09:07;;;;;;;5.10;4.90;;;15.30;96.10;;;;;;4969096;28;87509;-86
2021/05/21 11:11:53;;;;;;;5.57;5.18;;;15.20;96.60;;;;;;4964284;28;87038;-86
2021/05/21 11:14:22;;;;;;;6.15;5.85;;;15.20;96.90;;;;;;4960321;28;87073;-86
2021/05/21 11:16:56;;;;;;;5.85;5.55;;;15.20;97.00;;;;;;4961850;28;88184;-86
2021/05/21 11:19:25;;;;;;;6.05;5.75;;;15.10;97.30;;;;;;4970376;28;86658;-86
2021/05/21 11:21:52;;;;;;;7.70;7.40;;;15.00;97.70;;;;;;4954928;28;91122;-87
2021/05/21 11:24:36;;;;;;;9.43;9.02;;;14.60;99.50;;;;;;4960712;28;86951;-84
2021/05/21 11:27:02;;;;;;;4.18;3.90;;;15.00;98.20;;;;;;4970361;28;86956;-88
2021/05/21 11:29:28;;;;;;;9.02;8.40;;;15.70;98.90;;;;;;4961682;28;88254;-87
2021/05/21 11:31:54;;;;;;;7.30;6.90;;;14.80;98.50;;;;;;4968170;28;87622;-85
2021/05/21 11:34:20;;;;;;;6.03;5.72;;;15.20;98.40;;;;;;4970161;28;87040;-84
2021/05/21 11:36:46;;;;;;;4.63;4.22;;;15.40;98.40;;;;;;4975751;28;86919;-85
2021/05/21 11:39:11;;;;;;;4.55;4.35;;;15.60;98.40;;;;;;4968310;28;87895;-87
2021/05/21 11:41:43;;;;;;;4.15;3.67;;;15.90;98.10;;;;;;4966611;28;87466;-86
2021/05/21 11:44:10;;;;;;;4.43;4.13;;;16.10;97.80;;;;;;4967827;28;87086;-87
2021/05/21 11:46:43;;;;;;;4.28;4.07;;;16.40;97.20;;;;;;4969473;28;85878;-85
2021/05/21 11:49:20;;;;;;;4.70;4.50;;;16.70;96.90;;;;;;4984729;28;87592;-86
2021/05/21 11:51:58;;;;;;;7.13;6.72;;;16.90;96.50;;;;;;4961839;28;86348;-87
2021/05/21 11:54:27;;;;;;;7.82;7.50;;;16.90;95.70;;;;;;4968891;28;87839;-87
2021/05/21 11:56:54;;;;;;;7.25;6.85;;;16.80;95.60;;;;;;4969193;28;86668;-85
2021/05/21 11:59:22;;;;;;;6.47;6.18;;;16.80;95.80;;;;;;4963072;28;87155;-87
2021/05/21 12:01:53;;;;;;;5.70;5.35;;;16.80;95.40;;;;;;4967427;28;88333;-89
2021/05/21 12:04:21;;;;;;;6.40;6.10;;;16.60;95.50;;;;;;4955097;28;87217;-88
2021/05/21 12:06:51;;;;;;;4.22;3.85;;;16.60;96.40;;;;;;4974982;28;87192;-88
2021/05/21 12:09:20;;;;;;;3.80;3.60;;;16.60;95.20;;;;;;4971253;28;87204;-88
2021/05/21 12:11:46;;;;;;;4.20;4.00;;;16.70;95.10;;;;;;4955279;28;90248;-87
2021/05/21 12:14:23;;;;;;;4.25;3.90;;;16.60;95.60;;;;;;4956320;28;87083;-88
2021/05/21 12:16:53;;;;;;;4.60;4.30;;;16.90;95.70;;;;;;4975286;28;86852;-87
2021/05/21 12:19:21;;;;;;;5.22;4.82;;;17.00;94.80;;;;;;4965220;28;89144;-88
2021/05/21 12:21:52;;;;;;;5.30;4.93;;;17.00;91.40;;;;;;4967651;28;88184;-87
2021/05/21 12:24:21;;;;;;;5.32;5.03;;;17.30;93.10;;;;;;4974298;28;87042;-88
2021/05/21 12:26:52;;;;;;;4.47;4.28;;;18.00;92.90;;;;;;4964771;28;87051;-89
2021/05/21 12:29:19;;;;;;;7.40;7.10;;;18.40;92.20;;;;;;4965739;28;87176;-88
2021/05/21 12:31:53;;;;;;;6.15;5.85;;;18.50;91.90;;;;;;4945247;28;90834;-88
2021/05/21 12:34:20;;;;;;;5.95;5.65;;;18.50;92.50;;;;;;4954418;28;86704;-88
2021/05/21 12:37:06;;;;;;;5.25;4.85;;;18.60;91.10;;;;;;4963410;28;86226;-87
2021/05/21 12:39:33;;;;;;;6.72;6.40;;;18.40;91.40;;;;;;4945508;28;90979;-87
2021/05/21 12:42:00;;;;;;;6.97;6.57;;;18.30;91.80;;;;;;4948127;28;90325;-86
2021/05/21 12:44:26;;;;;;;4.20;4.00;;;18.10;91.90;;;;;;4949875;28;88062;-86
2021/05/21 12:46:53;;;;;;;4.72;4.43;;;17.60;92.40;;;;;;4965321;28;87570;-87
2021/05/21 12:49:35;;;;;;;5.15;4.90;;;17.60;93.10;;;;;;4966680;28;87193;-87
2021/05/21 12:52:03;;;;;;;9.07;8.60;;;17.50;93.10;;;;;;4966595;28;87789;-88
2021/05/21 12:54:43;;;;;;;6.18;5.88;;;17.40;93.40;;;;;;4973002;28;87095;-87
2021/05/21 12:57:20;;;;;;;6.97;6.60;;;17.30;93.40;;;;;;4968394;28;87057;-87
2021/05/21 12:59:52;;;;;;;7.35;7.00;;;17.00;93.60;;;;;;4963568;28;87791;-87
2021/05/21 13:02:20;;;;;;;5.20;4.90;;;16.80;93.80;;;;;;4965265;28;86911;-87
2021/05/21 13:04:59;;;;;;;5.13;4.90;;;16.50;94.50;;;;;;4960747;28;86707;-86
2021/05/21 13:07:26;;;;;;;4.80;4.50;;;16.30;94.80;;;;;;4964447;28;86863;-86
2021/05/21 13:09:57;;;;;;;5.13;4.65;;;16.20;95.30;;;;;;4961825;28;88703;-85
2021/05/21 13:12:29;;;;;;;7.07;6.68;;;16.20;95.50;;;;;;4962570;28;88596;-86
2021/05/21 13:14:56;;;;;;;6.35;5.45;;;16.30;95.50;;;;;;4960419;28;87004;-87
2021/05/21 13:17:29;;;;;;;4.85;4.55;;;16.20;95.50;;;;;;4964034;28;86892;-86
2021/05/21 13:20:00;;;;;;;5.70;5.35;;;16.10;95.70;;;;;;4965903;28;87032;-87
2021/05/21 13:22:30;;;;;;;5.53;5.18;;;16.00;95.80;;;;;;4967085;28;87395;-87
2021/05/21 13:24:58;;;;;;;3.75;3.45;;;15.70;95.90;;;;;;4966332;28;87005;-86
2021/05/21 13:27:25;;;;;;;5.32;5.03;;;15.50;96.90;;;;;;4964131;28;86215;-86
2021/05/21 13:29:51;;;;;;;4.18;3.97;;;15.30;95.60;;;;;;4961112;28;87240;-86
2021/05/21 13:32:18;;;;;;;4.05;3.85;;;15.40;96.00;;;;;;4967720;28;87105;-85
2021/05/21 13:34:44;;;;;;;5.28;4.88;;;15.50;95.40;;;;;;4967777;28;87262;-86
2021/05/21 13:37:10;;;;;;;5.57;5.07;;;15.60;95.10;;;;;;4977124;28;86733;-85
2021/05/21 13:39:37;;;;;;;4.40;4.20;;;15.60;92.80;;;;;;4967947;28;87010;-85
2021/05/21 13:42:03;;;;;;;5.20;5.00;;;15.60;91.80;;;;;;4965818;28;87097;-83
2021/05/21 13:44:29;;;;;;;5.35;5.15;;;15.70;89.00;;;;;;4961153;28;87112;-85
2021/05/21 13:46:55;;;;;;;7.22;6.93;;;15.80;86.40;;;;;;4957351;28;86934;-84
2021/05/21 13:49:23;;;;;;;5.03;4.72;;;15.70;85.80;;;;;;4967556;28;87647;-86
2021/05/21 13:51:55;;;;;;;5.47;5.18;;;15.80;87.20;;;;;;4972152;28;86959;-85
2021/05/21 13:54:21;;;;;;;7.07;6.57;;;15.80;88.10;;;;;;4973660;28;86928;-86
2021/05/21 13:56:47;;;;;;;7.43;7.03;;;15.80;85.70;;;;;;4972921;28;87033;-85
2021/05/21 14:01:48;;;;;;;6.10;5.53;;;15.80;87.00;;;;;;5734763;22;88929;-86
2021/05/21 14:04:15;;;;;;;6.75;6.30;;;15.90;87.10;;;;;;4951506;28;86835;-85
2021/05/21 14:06:43;;;;;;;5.70;5.18;;;16.00;87.40;;;;;;4947160;28;87097;-86
2021/05/21 14:09:10;;;;;;;4.47;4.28;;;16.10;88.50;;;;;;4947701;28;87455;-87
2021/05/21 14:11:36;;;;;;;5.45;5.05;;;16.20;90.00;;;;;;4947217;28;87504;-86
2021/05/21 14:14:07;;;;;;;4.93;4.60;;;16.40;90.00;;;;;;4949120;28;87032;-85
2021/05/21 14:16:32;;;;;;;4.78;4.43;;;16.50;89.80;;;;;;4950361;28;86357;-85
2021/05/21 14:18:58;;;;;;;4.10;3.72;;;16.50;90.20;;;;;;4955303;28;87130;-85
2021/05/21 14:21:27;;;;;;;3.78;3.58;;;16.50;90.70;;;;;;4960009;28;87875;-86
2021/05/21 14:24:17;;;;;;;4.57;4.28;;;16.50;91.10;;;;;;4970104;28;87308;-84
2021/05/21 14:26:47;;;;;;;4.72;4.43;;;16.60;90.60;;;;;;4955217;28;86408;-86
2021/05/21 14:29:13;;;;;;;5.45;5.13;;;16.80;90.70;;;;;;4959961;28;87694;-85
2021/05/21 14:31:47;;;;;;;4.43;3.60;;;16.90;90.30;;;;;;4950791;28;88364;-86
2021/05/21 14:36:59;;;;;;;4.18;3.97;;;17.00;90.60;;;;;;5003201;22;87497;-85
2021/05/21 14:39:25;;;;;;;5.25;4.85;;;17.20;91.10;;;;;;4965090;28;88041;-86
2021/05/21 14:41:51;;;;;;;5.75;5.35;;;17.30;90.90;;;;;;4971785;28;87426;-86
2021/05/21 14:44:17;;;;;;;5.55;5.13;;;17.20;90.50;;;;;;4965682;28;87439;-86
2021/05/21 14:46:44;;;;;;;5.60;4.78;;;17.00;91.00;;;;;;4971048;28;87311;-86
2021/05/21 14:49:11;;;;;;;5.63;5.32;;;17.00;90.80;;;;;;4971127;28;87957;-85
2021/05/21 14:51:37;;;;;;;6.22;5.90;;;16.90;90.00;;;;;;4968752;28;88460;-88
2021/05/21 14:54:05;;;;;;;6.05;5.78;;;16.70;90.20;;;;;;4973369;28;86270;-83
2021/05/21 14:56:30;;;;;;;5.13;4.93;;;16.70;90.00;;;;;;4974593;28;86728;-85
2021/05/21 14:58:56;;;;;;;5.80;5.47;;;16.70;90.00;;;;;;4978979;28;87125;-84
2021/05/21 15:01:23;;;;;;;5.78;5.50;;;16.80;90.10;;;;;;4987433;28;86970;-85
2021/05/21 15:03:54;;;;;;;6.28;6.07;;;16.80;90.10;;;;;;4989386;28;86356;-83
2021/05/21 15:06:22;;;;;;;;;;;17.00;89.50;;;;;;4977105;28;86418;-85
2021/05/21 15:08:53;;;;;;;4.93;4.60;;;17.30;90.00;;;;;;4957464;28;89812;-84
2021/05/21 15:11:21;;;;;;;6.10;5.80;;;17.40;89.60;;;;;;4973829;28;87299;-86
2021/05/21 15:13:48;;;;;;;6.55;6.25;;;17.40;88.90;;;;;;4955886;28;88273;-85
2021/05/21 15:24:32;;;;;;;5.97;5.68;;;17.00;89.00;;;;;;4982455;28;86942;-85
2021/05/21 15:26:58;;;;;;;5.68;5.45;;;16.90;89.30;;;;;;4972704;28;86990;-83
2021/05/21 15:29:23;;;;;;;6.88;6.57;;;16.80;88.30;;;;;;4950256;28;88628;-84
2021/05/21 15:31:49;;;;;;;7.30;6.90;;;16.70;87.80;;;;;;4968257;28;86725;-86
2021/05/21 15:34:21;;;;;;;6.15;5.78;;;16.50;88.30;;;;;;4967317;28;86645;-84
2021/05/21 15:36:51;;;;;;;6.80;6.40;;;16.30;88.80;;;;;;4959616;28;88346;-84
2021/05/21 15:39:24;;;;;;;6.97;6.67;;;16.30;89.80;;;;;;4967793;28;90858;-85
2021/05/21 15:47:19;;;;;;;5.80;5.47;;;16.10;90.50;;;;;;4967942;28;87475;-85
2021/05/21 15:50:07;;;;;;;6.30;6.00;;;16.00;90.70;;;;;;4969278;28;87126;-85
2021/05/21 15:58:00;;;;;;;5.03;4.72;;;15.70;91.40;;;;;;4962808;28;86258;-85
2021/05/21 16:00:26;;;;;;;4.38;4.15;;;15.60;91.40;;;;;;4965459;28;88214;-85
2021/05/21 16:02:52;;;;;;;4.85;4.55;;;15.50;91.70;;;;;;4964773;28;88372;-84
2021/05/21 16:05:18;;;;;;;3.92;3.72;;;15.30;91.90;;;;;;4964879;28;87912;-86